首页
METAR-TAF:

METAR-TAF

机场 :

Trent Lott International Airport

帕斯卡古拉, 密西西比州, 美国

纬度: 30-27-49N, 经度: 088-31-55W, 海拔: 5米

当前天气观测

该预报发布于32分钟前的14:53 UTC
风速4节,风向北转东北
温度 11°C
湿度 87%
气压 1021 hPa
能見度: 6.4公里
阴天层高于10000英尺
小雨, 轻雾

METAR: KPQL 261453Z 03004KT 4SM -RA BR OVC100 11/09 A3016 RMK AO2 SLP214 P0000 60003 T01110094 50004 $

时间: 09:25 (15:25 UTC)


TAF: 丢失

超过4000个机场的气象观测和天气预报(METAR&TAF报告)。

可查询的气象台以黄色和红色小点在地图上表示。

将鼠标移到小点上方,可查看气象台名称。

然后点击查看天气观测和预报。

如需切换地图:点击带黑十字的绿色按钮放大地图;点击带横线的绿色按钮缩小地图;或者点击绿色箭头查看邻近地区的地图。


METAR-TAF: